Time;durP1;ratioP1;P1;durP2;ratioP2;P2;SDS_P1;SDS_P2;PMS_P1;PMS_P2;Temp;Humidity;BMP_temperature;BMP_pressure;BME280_temperature;BME280_humidity;BME280_pressure;Samples;Min_cycle;Max_cycle;Signal;HPM_P1;HPM_P2
2021/07/06 00:02:21;;;;;;;;;;;;;;;26.43;46.50;98981.16;5112435;28;19964;-52
2021/07/06 00:04:48;;;;;;;;;;;;;;;26.06;47.28;98982.72;5112257;28;20360;-52
2021/07/06 00:07:15;;;;;;;;;;;;;;;26.16;47.37;98976.13;5112039;28;19912;-51
2021/07/06 00:09:40;;;;;;;;;;;;;;;26.00;47.35;98987.56;5112610;28;19919;-53
2021/07/06 00:12:05;;;;;;;;;;;;;;;26.18;47.15;98987.50;5094283;28;19939;-53
2021/07/06 00:14:31;;;;;;;;;;;;;;;26.33;46.80;98981.50;5112800;28;19919;-51
2021/07/06 00:16:56;;;;;;;;;;;;;;;26.02;47.54;98977.13;5112763;28;19919;-54
2021/07/06 00:19:21;;;;;;;;;;;;;;;26.00;47.18;98976.66;5112488;28;19924;-50
2021/07/06 00:21:46;;;;;;;;;;;;;;;25.97;47.62;98980.03;5094120;28;20329;-52
2021/07/06 00:24:12;;;;;;;;;;;;;;;26.15;46.88;98975.31;5112545;28;19912;-52
2021/07/06 00:26:37;;;;;;;;;;;;;;;26.24;46.77;98970.66;5112444;28;20407;-51
2021/07/06 00:29:02;;;;;;;;;;;;;;;26.05;47.39;98981.94;5112300;28;19922;-53
2021/07/06 00:31:27;;;;;;;;;;;;;;;26.16;47.27;98974.22;5111730;28;19977;-53
2021/07/06 00:33:53;;;;;;;;;;;;;;;25.89;47.86;98975.34;5112177;28;19919;-51
2021/07/06 00:36:18;;;;;;;;;;;;;;;25.54;48.22;98948.19;5112202;28;19934;-49
2021/07/06 00:38:43;;;;;;;;;;;;;;;25.67;48.39;98970.94;5112149;28;19911;-52
2021/07/06 00:41:09;;;;;;;;;;;;;;;26.17;47.35;98978.53;5112100;28;19919;-51
2021/07/06 00:43:36;;;;;;;;;;;;;;;25.99;47.20;98985.97;5111937;28;20052;-48
2021/07/06 00:46:02;;;;;;;;;;;;;;;25.93;47.16;98976.34;5112141;28;19943;-49
2021/07/06 00:48:27;;;;;;;;;;;;;;;25.88;47.35;98973.78;5111987;28;20368;-49
2021/07/06 00:50:53;;;;;;;;;;;;;;;25.75;47.95;98973.63;5111697;28;20390;-49
2021/07/06 00:53:18;;;;;;;;;;;;;;;25.72;47.74;98976.19;5111935;28;19919;-50
2021/07/06 00:55:43;;;;;;;;;;;;;;;25.60;47.77;98976.06;5112193;28;19911;-50
2021/07/06 00:58:13;;;;;;;;;;;;;;;25.61;47.89;98981.19;5112007;28;19915;-50
2021/07/06 01:00:38;;;;;;;;;;;;;;;25.66;47.54;98975.56;5093650;28;19915;-52
2021/07/06 01:03:05;;;;;;;;;;;;;;;25.60;47.90;98981.50;5111681;28;20398;-51
2021/07/06 01:05:30;;;;;;;;;;;;;;;25.61;47.56;98983.91;5111776;28;19998;-52
2021/07/06 01:07:55;;;;;;;;;;;;;;;25.96;46.92;98977.63;5111621;28;19935;-50
2021/07/06 01:10:20;;;;;;;;;;;;;;;25.57;47.60;98980.22;5111884;28;19978;-49
2021/07/06 01:12:46;;;;;;;;;;;;;;;25.92;46.79;98988.38;5111515;28;20415;-50
2021/07/06 01:15:12;;;;;;;;;;;;;;;26.08;46.33;98992.19;5111210;28;19920;-51
2021/07/06 01:17:39;;;;;;;;;;;;;;;26.06;46.26;98993.63;5111185;28;19920;-49
2021/07/06 01:20:08;;;;;;;;;;;;;;;25.92;46.87;98991.91;5111251;28;19949;-50
2021/07/06 01:22:33;;;;;;;;;;;;;;;25.94;46.66;98991.56;5093372;28;20298;-52
2021/07/06 01:24:59;;;;;;;;;;;;;;;26.09;46.32;98991.06;5111517;28;19911;-52
2021/07/06 01:27:24;;;;;;;;;;;;;;;26.02;46.13;98990.75;5111654;28;19919;-51
2021/07/06 01:29:50;;;;;;;;;;;;;;;26.14;45.45;98990.06;5111540;28;19912;-49
2021/07/06 01:32:15;;;;;;;;;;;;;;;25.99;46.38;98993.31;5111378;28;19911;-50
2021/07/06 01:34:40;;;;;;;;;;;;;;;26.16;46.00;98992.47;5111366;28;19976;-48
2021/07/06 01:37:06;;;;;;;;;;;;;;;25.94;46.20;98991.56;5111467;28;19930;-52
2021/07/06 01:39:31;;;;;;;;;;;;;;;26.10;46.08;98992.66;5111378;28;19922;-50
2021/07/06 01:41:56;;;;;;;;;;;;;;;26.27;45.52;98982.81;5111435;28;19919;-52
2021/07/06 01:44:22;;;;;;;;;;;;;;;26.03;45.86;98986.91;5114027;28;20007;-51
2021/07/06 01:46:47;;;;;;;;;;;;;;;26.00;45.94;98984.81;5115418;28;20231;-48
2021/07/06 01:49:13;;;;;;;;;;;;;;;26.10;45.78;98983.66;5096909;28;19912;-49
2021/07/06 01:51:39;;;;;;;;;;;;;;;26.24;45.18;98981.56;5115351;28;19918;-51
2021/07/06 01:54:04;;;;;;;;;;;;;;;26.22;45.55;98983.03;5115495;28;20444;-50
2021/07/06 01:56:30;;;;;;;;;;;;;;;26.16;45.55;98990.56;5115134;28;19922;-50
2021/07/06 01:58:55;;;;;;;;;;;;;;;26.06;45.81;98988.97;5114879;28;19920;-52
2021/07/06 02:01:21;;;;;;;;;;;;;;;25.74;46.50;98990.28;5115369;28;19916;-51
2021/07/06 02:03:49;;;;;;;;;;;;;;;25.70;46.63;98983.88;5114843;28;19911;-51
2021/07/06 02:06:15;;;;;;;;;;;;;;;25.90;46.21;98990.59;5115081;28;19976;-49
2021/07/06 02:08:40;;;;;;;;;;;;;;;25.90;46.20;98987.88;5114502;28;20339;-53
2021/07/06 02:11:06;;;;;;;;;;;;;;;26.04;45.98;98983.03;5115080;28;20356;-51
2021/07/06 02:13:31;;;;;;;;;;;;;;;25.82;46.28;98983.25;5114900;28;19935;-50
2021/07/06 02:15:56;;;;;;;;;;;;;;;25.63;46.54;98975.41;5114830;28;20397;-49
2021/07/06 02:18:22;;;;;;;;;;;;;;;25.50;46.94;98983.44;5096007;28;20020;-49
2021/07/06 02:20:52;;;;;;;;;;;;;;;25.65;46.66;98981.34;5114533;28;19923;-51
2021/07/06 02:23:17;;;;;;;;;;;;;;;25.89;46.38;98994.44;5114723;28;20084;-53
2021/07/06 02:25:43;;;;;;;;;;;;;;;25.75;46.31;98986.44;5114554;28;20014;-52
2021/07/06 02:28:08;;;;;;;;;;;;;;;25.69;46.35;98991.25;5114702;28;19912;-52
2021/07/06 02:30:34;;;;;;;;;;;;;;;25.77;46.52;98999.75;5114404;28;19911;-52
2021/07/06 02:32:59;;;;;;;;;;;;;;;25.78;46.17;98998.63;5114914;28;20001;-51
2021/07/06 02:35:27;;;;;;;;;;;;;;;25.80;46.41;98990.91;5114624;28;20403;-51
2021/07/06 02:37:52;;;;;;;;;;;;;;;25.94;45.77;98995.09;5114649;28;19919;-52
2021/07/06 02:40:18;;;;;;;;;;;;;;;25.60;46.21;98997.84;5114820;28;20022;-52
2021/07/06 02:42:43;;;;;;;;;;;;;;;25.52;46.92;98999.44;5114608;28;19912;-52
2021/07/06 02:45:09;;;;;;;;;;;;;;;25.20;47.76;99004.19;5114409;28;19918;-52
2021/07/06 02:47:34;;;;;;;;;;;;;;;25.14;47.70;99002.75;5114441;28;19959;-52
2021/07/06 02:50:00;;;;;;;;;;;;;;;25.15;47.63;99002.44;5114396;28;19961;-53
2021/07/06 02:52:25;;;;;;;;;;;;;;;25.40;47.17;99010.16;5114158;28;19912;-52
2021/07/06 02:54:50;;;;;;;;;;;;;;;25.52;46.98;99007.63;5113445;28;20018;-52
2021/07/06 02:57:34;;;;;;;;;;;;;;;25.24;47.53;99016.09;5114133;28;19935;-50
2021/07/06 03:00:00;;;;;;;;;;;;;;;25.33;47.69;99016.91;5114142;28;19972;-51
2021/07/06 03:02:25;;;;;;;;;;;;;;;25.31;47.81;99019.13;5114141;28;19918;-50
2021/07/06 03:04:50;;;;;;;;;;;;;;;25.60;47.06;99017.72;5114140;28;19912;-52
2021/07/06 03:07:16;;;;;;;;;;;;;;;25.56;46.89;99030.38;5113764;28;19919;-52
2021/07/06 03:09:41;;;;;;;;;;;;;;;25.50;47.04;99026.22;5114015;28;20390;-52
2021/07/06 03:12:06;;;;;;;;;;;;;;;25.38;47.36;99029.56;5113962;28;20017;-52
2021/07/06 03:14:31;;;;;;;;;;;;;;;25.55;47.28;99034.19;5113669;28;19911;-52
2021/07/06 03:16:57;;;;;;;;;;;;;;;25.51;47.23;99035.97;5113861;28;19923;-52
2021/07/06 03:19:22;;;;;;;;;;;;;;;25.40;47.31;99040.13;5112963;28;20351;-52
2021/07/06 03:21:47;;;;;;;;;;;;;;;25.18;47.86;99042.63;5113057;28;20006;-49
2021/07/06 03:24:13;;;;;;;;;;;;;;;24.92;48.90;99042.59;5113057;28;20272;-50
2021/07/06 03:26:38;;;;;;;;;;;;;;;25.04;48.74;99052.06;5112986;28;19958;-52
2021/07/06 03:29:03;;;;;;;;;;;;;;;25.05;48.59;99057.16;5112833;28;20398;-52
2021/07/06 03:31:28;;;;;;;;;;;;;;;25.15;48.29;99054.16;5113054;28;19912;-51
2021/07/06 03:33:54;;;;;;;;;;;;;;;25.29;47.82;99050.53;5112969;28;19915;-54
2021/07/06 03:36:19;;;;;;;;;;;;;;;25.06;48.46;99060.72;5112734;28;20009;-51
2021/07/06 03:38:44;;;;;;;;;;;;;;;25.24;47.88;99065.09;5112785;28;19912;-53
2021/07/06 03:41:09;;;;;;;;;;;;;;;25.12;47.92;99054.00;5112886;28;20022;-50
2021/07/06 03:43:35;;;;;;;;;;;;;;;25.47;47.45;99059.53;5112747;28;19925;-52
2021/07/06 03:46:00;;;;;;;;;;;;;;;25.72;46.67;99055.19;5120400;27;19911;-52
2021/07/06 03:48:25;;;;;;;;;;;;;;;25.83;46.54;99050.22;5132683;27;19998;-48
2021/07/06 03:50:51;;;;;;;;;;;;;;;26.26;45.32;99047.47;5132809;27;19911;-52
2021/07/06 03:53:16;;;;;;;;;;;;;;;26.61;44.36;99054.78;5132803;27;19944;-52
2021/07/06 03:55:41;;;;;;;;;;;;;;;26.70;44.42;99052.81;5132961;27;19938;-53
2021/07/06 03:58:07;;;;;;;;;;;;;;;26.34;45.04;99056.75;5132922;27;19998;-51
2021/07/06 04:00:32;;;;;;;;;;;;;;;26.45;45.12;99058.00;5132741;27;19968;-52
2021/07/06 04:02:57;;;;;;;;;;;;;;;26.84;44.26;99063.50;5132629;27;19960;-51
2021/07/06 04:05:23;;;;;;;;;;;;;;;27.13;43.38;99060.00;5132328;27;20011;-51
2021/07/06 04:07:48;;;;;;;;;;;;;;;27.31;42.78;99066.16;5132069;27;20282;-51
2021/07/06 04:10:16;;;;;;;;;;;;;;;27.94;41.80;99068.13;5132421;27;19926;-50
2021/07/06 04:12:41;;;;;;;;;;;;;;;27.94;41.85;99076.31;5132641;27;19912;-52
2021/07/06 04:15:07;;;;;;;;;;;;;;;28.19;41.51;99079.94;5132260;27;19999;-52
2021/07/06 04:17:32;;;;;;;;;;;;;;;28.06;41.92;99079.09;5131671;27;20002;-52
2021/07/06 04:19:58;;;;;;;;;;;;;;;28.58;40.90;99078.59;5127969;27;20374;-52
2021/07/06 04:22:23;;;;;;;;;;;;;;;28.42;41.10;99083.88;5111858;28;20002;-52
2021/07/06 04:24:48;;;;;;;;;;;;;;;28.56;40.83;99078.13;5112002;28;19954;-54
2021/07/06 04:27:14;;;;;;;;;;;;;;;28.57;40.98;99082.44;5111890;28;19980;-50
2021/07/06 04:29:39;;;;;;;;;;;;;;;28.83;40.06;99081.34;5111621;28;19915;-52
2021/07/06 04:32:04;;;;;;;;;;;;;;;29.17;39.65;99082.84;5111612;28;19912;-52
2021/07/06 04:34:30;;;;;;;;;;;;;;;29.69;38.33;99083.22;5111879;28;19911;-52
2021/07/06 04:36:55;;;;;;;;;;;;;;;29.33;39.09;99082.94;5111649;28;20348;-53
2021/07/06 04:39:20;;;;;;;;;;;;;;;29.62;38.37;99075.56;5111975;28;19968;-51
2021/07/06 04:41:46;;;;;;;;;;;;;;;29.57;38.62;99082.09;5111573;28;19912;-52
2021/07/06 04:44:11;;;;;;;;;;;;;;;29.09;39.55;99080.97;5111531;28;19916;-52
2021/07/06 04:46:37;;;;;;;;;;;;;;;29.47;38.60;99088.03;5106464;28;19916;-52
2021/07/06 04:49:02;;;;;;;;;;;;;;;29.89;37.80;99089.66;5091329;28;20287;-52
2021/07/06 04:51:29;;;;;;;;;;;;;;;29.61;37.91;99087.69;5090422;28;19916;-53
2021/07/06 04:53:54;;;;;;;;;;;;;;;29.75;37.93;99090.06;5094785;28;19968;-54
2021/07/06 04:56:22;;;;;;;;;;;;;;;30.12;37.58;99098.97;5091287;28;19912;-50
2021/07/06 04:58:47;;;;;;;;;;;;;;;30.47;36.64;99098.34;5090912;28;19923;-48
2021/07/06 05:01:12;;;;;;;;;;;;;;;31.33;35.63;99107.91;5090613;28;19912;-50
2021/07/06 05:03:37;;;;;;;;;;;;;;;31.26;35.67;99103.00;5090555;28;19935;-56
2021/07/06 05:06:03;;;;;;;;;;;;;;;31.50;35.39;99115.75;5090277;28;19912;-50
2021/07/06 05:08:28;;;;;;;;;;;;;;;31.04;35.96;99109.19;5090547;28;20303;-53
2021/07/06 05:10:54;;;;;;;;;;;;;;;30.82;36.55;99116.06;5090863;28;20328;-51
2021/07/06 05:13:19;;;;;;;;;;;;;;;30.36;36.99;99119.22;5090631;28;19916;-51
2021/07/06 05:15:45;;;;;;;;;;;;;;;31.13;36.32;99126.25;5090926;28;20239;-50
2021/07/06 05:18:10;;;;;;;;;;;;;;;30.63;36.60;99123.06;5090319;28;19928;-50
2021/07/06 05:20:36;;;;;;;;;;;;;;;31.01;36.14;99129.13;5098988;28;19919;-52
2021/07/06 05:23:01;;;;;;;;;;;;;;;30.94;36.40;99138.00;5110617;28;20107;-53
2021/07/06 05:25:26;;;;;;;;;;;;;;;31.08;35.60;99132.03;5110813;28;19995;-52
2021/07/06 05:27:51;;;;;;;;;;;;;;;30.36;36.11;99139.22;5110819;28;19916;-53
2021/07/06 05:30:19;;;;;;;;;;;;;;;30.14;36.63;99137.00;5111274;28;19986;-52
2021/07/06 05:32:44;;;;;;;;;;;;;;;30.56;36.14;99147.59;5110696;28;19912;-37
2021/07/06 05:35:10;;;;;;;;;;;;;;;30.63;35.78;99146.97;5113485;28;19923;-39
2021/07/06 05:37:38;;;;;;;;;;;;;;;31.35;34.30;99150.34;5120704;27;19951;-37
2021/07/06 05:40:04;;;;;;;;;;;;;;;31.63;34.09;99154.16;5120020;28;20005;-37
2021/07/06 05:42:30;;;;;;;;;;;;;;;32.47;32.74;99166.50;5119845;28;19985;-37
2021/07/06 05:44:55;;;;;;;;;;;;;;;31.49;34.29;99152.66;5121104;28;19920;-37
2021/07/06 05:47:20;;;;;;;;;;;;;;;32.15;33.45;99156.44;5121683;28;20430;-38
2021/07/06 05:49:45;;;;;;;;;;;;;;;32.50;33.23;99161.06;5123025;28;19915;-53
2021/07/06 05:52:11;;;;;;;;;;;;;;;32.83;32.53;99154.19;5122901;28;19965;-51
2021/07/06 05:54:36;;;;;;;;;;;;;;;33.55;31.32;99160.03;5121072;28;20415;-53
2021/07/06 05:57:01;;;;;;;;;;;;;;;34.54;30.20;99153.41;5121365;28;19927;-52
2021/07/06 05:59:27;;;;;;;;;;;;;;;33.95;30.69;99164.97;5119858;28;19918;-53
2021/07/06 06:01:52;;;;;;;;;;;;;;;33.83;30.71;99165.19;5121420;28;20313;-51
2021/07/06 06:04:17;;;;;;;;;;;;;;;33.88;30.34;99151.06;5120674;27;19911;-52
2021/07/06 06:06:43;;;;;;;;;;;;;;;33.69;30.51;99116.94;5117370;28;20371;-53
2021/07/06 06:09:08;;;;;;;;;;;;;;;32.67;32.59;99162.56;5110572;28;19919;-52
2021/07/06 06:11:33;;;;;;;;;;;;;;;33.13;32.46;99161.81;5110576;28;20305;-51
2021/07/06 06:13:59;;;;;;;;;;;;;;;33.49;31.64;99160.38;5110636;28;19912;-51
2021/07/06 06:16:24;;;;;;;;;;;;;;;33.50;31.47;99166.69;5110717;28;19916;-52
2021/07/06 06:18:54;;;;;;;;;;;;;;;33.72;31.21;99154.03;5108694;28;20452;-51
2021/07/06 06:21:23;;;;;;;;;;;;;;;33.51;31.03;99148.97;5112965;28;19923;-53
2021/07/06 06:23:48;;;;;;;;;;;;;;;33.83;30.96;99160.47;5116480;28;19930;-54
2021/07/06 06:26:14;;;;;;;;;;;;;;;34.06;30.62;99168.66;5115150;28;19915;-52
2021/07/06 06:28:40;;;;;;;;;;;;;;;33.34;31.91;99164.09;5104645;28;19915;-53
2021/07/06 06:31:05;;;;;;;;;;;;;;;33.64;31.56;99166.13;5125622;27;19926;-50
2021/07/06 06:33:31;;;;;;;;;;;;;;;33.63;31.35;99167.25;5134594;27;19915;-50
2021/07/06 06:35:56;;;;;;;;;;;;;;;34.16;30.75;99166.44;5134518;27;20358;-52
2021/07/06 06:38:21;;;;;;;;;;;;;;;33.97;31.01;99167.34;5116047;27;19919;-52
2021/07/06 06:40:47;;;;;;;;;;;;;;;34.09;30.98;99167.88;5134702;27;19917;-53
2021/07/06 06:43:12;;;;;;;;;;;;;;;34.09;30.41;99150.53;5134894;27;19984;-51
2021/07/06 06:45:37;;;;;;;;;;;;;;;34.34;30.52;99161.09;5134679;27;19925;-52
2021/07/06 06:48:03;;;;;;;;;;;;;;;34.32;30.73;99155.16;5134198;27;19949;-51
2021/07/06 06:50:28;;;;;;;;;;;;;;;34.54;30.18;99154.22;5134049;27;19915;-52
2021/07/06 06:52:53;;;;;;;;;;;;;;;34.37;30.40;99161.16;5133793;27;19918;-52
2021/07/06 06:55:18;;;;;;;;;;;;;;;34.70;29.74;99153.22;5133690;27;19911;-52
2021/07/06 06:57:44;;;;;;;;;;;;;;;35.13;29.57;99157.13;5132920;27;19915;-52
2021/07/06 07:00:09;;;;;;;;;;;;;;;35.41;29.12;99153.81;5133571;27;19912;-53
2021/07/06 07:02:35;;;;;;;;;;;;;;;34.94;29.60;99157.34;5133369;27;20301;-52
2021/07/06 07:05:00;;;;;;;;;;;;;;;35.68;28.36;99152.78;5133654;27;19926;-53
2021/07/06 07:07:25;;;;;;;;;;;;;;;35.71;28.73;99155.56;5133939;27;19911;-54
2021/07/06 07:09:51;;;;;;;;;;;;;;;35.82;28.26;99153.66;5132126;27;19918;-49
2021/07/06 07:12:16;;;;;;;;;;;;;;;35.50;28.72;99158.19;5131883;27;19911;-53
2021/07/06 07:14:42;;;;;;;;;;;;;;;35.97;27.50;99151.75;5131797;27;19915;-51
2021/07/06 07:17:07;;;;;;;;;;;;;;;34.28;30.32;99163.41;5132620;27;20018;-52
2021/07/06 07:19:32;;;;;;;;;;;;;;;34.07;30.13;99159.19;5132728;27;19967;-52
2021/07/06 07:21:58;;;;;;;;;;;;;;;34.94;28.65;99172.00;5112781;28;19919;-53
2021/07/06 07:24:23;;;;;;;;;;;;;;;35.07;28.58;99163.38;5112859;28;19991;-52
2021/07/06 07:26:48;;;;;;;;;;;;;;;34.88;28.73;99168.00;5113268;28;20375;-52
2021/07/06 07:29:14;;;;;;;;;;;;;;;34.88;28.60;99147.84;5112869;28;19912;-50
2021/07/06 07:31:39;;;;;;;;;;;;;;;35.11;28.11;99159.50;5112942;28;19912;-53
2021/07/06 07:34:04;;;;;;;;;;;;;;;34.98;28.53;99161.75;5094673;28;19912;-52
2021/07/06 07:36:29;;;;;;;;;;;;;;;35.15;28.44;99159.53;5112935;28;20012;-54
2021/07/06 07:38:56;;;;;;;;;;;;;;;35.59;27.61;99155.88;5112908;28;19912;-53
2021/07/06 07:41:21;;;;;;;;;;;;;;;36.47;26.92;99153.09;5112439;28;19912;-54
2021/07/06 07:43:49;;;;;;;;;;;;;;;35.48;27.81;99146.72;5111332;28;19935;-53
2021/07/06 07:46:14;;;;;;;;;;;;;;;35.48;27.46;99158.56;5112609;28;19919;-54
2021/07/06 07:48:39;;;;;;;;;;;;;;;36.36;26.62;99155.84;5112475;28;19912;-53
2021/07/06 07:51:05;;;;;;;;;;;;;;;36.60;26.18;99160.66;5120542;27;20306;-52
2021/07/06 07:53:30;;;;;;;;;;;;;;;36.57;26.26;99155.88;5133814;27;19962;-55
2021/07/06 07:55:55;;;;;;;;;;;;;;;35.90;27.23;99156.47;5133552;27;20396;-53
2021/07/06 07:58:20;;;;;;;;;;;;;;;35.96;27.19;99157.66;5132636;27;19922;-53
2021/07/06 08:00:46;;;;;;;;;;;;;;;36.70;25.13;99158.31;5133065;27;19927;-55
2021/07/06 08:03:11;;;;;;;;;;;;;;;36.68;25.36;99150.38;5132910;27;19922;-52
2021/07/06 08:05:36;;;;;;;;;;;;;;;36.64;25.38;99144.03;5133186;27;19933;-54
2021/07/06 08:08:02;;;;;;;;;;;;;;;37.04;25.71;99152.38;5132772;27;19922;-53
2021/07/06 08:10:27;;;;;;;;;;;;;;;37.02;25.86;99149.22;5132620;27;20006;-52
2021/07/06 08:12:52;;;;;;;;;;;;;;;37.19;25.14;99148.44;5132738;27;19911;-53
2021/07/06 08:15:18;;;;;;;;;;;;;;;36.85;25.45;99154.38;5132443;27;20001;-54
2021/07/06 08:17:43;;;;;;;;;;;;;;;37.03;25.45;99159.13;5132427;27;19919;-53
2021/07/06 08:20:09;;;;;;;;;;;;;;;36.58;25.44;99156.69;5127353;27;19953;-53
2021/07/06 08:22:34;;;;;;;;;;;;;;;36.18;25.84;99162.13;5112368;28;19911;-51
2021/07/06 08:25:00;;;;;;;;;;;;;;;36.45;25.01;99158.25;5111720;28;19951;-54
2021/07/06 08:27:25;;;;;;;;;;;;;;;37.17;25.03;99159.94;5111525;28;19939;-54
2021/07/06 08:29:50;;;;;;;;;;;;;;;37.47;23.73;99161.47;5110257;28;20007;-54
2021/07/06 08:32:16;;;;;;;;;;;;;;;38.19;23.48;99157.69;5111747;28;19911;-53
2021/07/06 08:34:41;;;;;;;;;;;;;;;38.37;23.41;99163.94;5111284;28;19926;-53
2021/07/06 08:37:06;;;;;;;;;;;;;;;38.14;22.90;99159.69;5093233;28;19916;-54
2021/07/06 08:39:31;;;;;;;;;;;;;;;38.20;22.94;99168.41;5111519;28;20395;-54
2021/07/06 08:41:57;;;;;;;;;;;;;;;38.19;23.33;99149.34;5111535;28;19911;-54
2021/07/06 08:44:23;;;;;;;;;;;;;;;37.56;23.56;99159.06;5111851;28;19980;-53
2021/07/06 08:46:48;;;;;;;;;;;;;;;37.56;23.57;99163.81;5111247;28;19918;-53
2021/07/06 08:49:14;;;;;;;;;;;;;;;36.65;24.37;99164.22;5093456;28;19980;-53
2021/07/06 08:51:40;;;;;;;;;;;;;;;36.32;24.78;99161.38;5092830;28;19981;-53
2021/07/06 08:54:05;;;;;;;;;;;;;;;36.27;25.41;99155.41;5111473;28;20361;-53
2021/07/06 08:56:31;;;;;;;;;;;;;;;36.25;25.35;99168.88;5111280;28;19911;-53
2021/07/06 08:58:56;;;;;;;;;;;;;;;37.18;25.02;99169.03;5111328;28;20281;-55
2021/07/06 09:01:25;;;;;;;;;;;;;;;36.57;24.65;99166.97;5092935;28;20291;-53
2021/07/06 09:03:54;;;;;;;;;;;;;;;35.90;25.70;99159.22;5111556;28;20039;-54
2021/07/06 09:06:20;;;;;;;;;;;;;;;35.65;25.62;99151.56;5111487;28;19976;-54
2021/07/06 09:08:51;;;;;;;;;;;;;;;35.74;25.68;99157.56;5111323;28;20010;-54
2021/07/06 09:11:16;;;;;;;;;;;;;;;35.94;25.94;99149.75;5111681;28;19951;-54
2021/07/06 09:13:41;;;;;;;;;;;;;;;36.25;25.51;99152.25;5111229;28;20038;-56
2021/07/06 09:16:07;;;;;;;;;;;;;;;35.48;26.03;99163.31;5111156;28;20023;-52
2021/07/06 09:18:32;;;;;;;;;;;;;;;35.02;26.42;99157.03;5110815;28;19931;-53
2021/07/06 09:21:05;;;;;;;;;;;;;;;35.00;25.55;99142.03;5111344;28;19923;-53
2021/07/06 09:23:38;;;;;;;;;;;;;;;34.94;26.88;99155.41;5092634;28;19916;-54
2021/07/06 09:26:04;;;;;;;;;;;;;;;35.42;26.28;99160.91;5111096;28;19939;-53
2021/07/06 09:28:30;;;;;;;;;;;;;;;34.96;27.25;99155.81;5110188;28;19919;-54
2021/07/06 09:30:59;;;;;;;;;;;;;;;34.51;27.32;99154.19;5109802;28;19911;-53
2021/07/06 09:33:27;;;;;;;;;;;;;;;34.52;27.39;99155.75;5108258;28;19947;-54
2021/07/06 09:35:53;;;;;;;;;;;;;;;34.63;27.46;99163.00;5108418;28;20459;-51
2021/07/06 09:38:18;;;;;;;;;;;;;;;34.96;27.37;99172.41;5108306;28;19912;-54
2021/07/06 09:40:45;;;;;;;;;;;;;;;35.39;27.32;99172.72;5108838;28;19916;-54
2021/07/06 09:43:22;;;;;;;;;;;;;;;34.81;28.15;99170.69;5108652;28;20372;-53
2021/07/06 09:46:00;;;;;;;;;;;;;;;34.89;26.58;99166.00;5108753;28;19919;-52
2021/07/06 09:48:25;;;;;;;;;;;;;;;35.03;26.09;99164.16;5109950;28;20315;-53
2021/07/06 09:50:51;;;;;;;;;;;;;;;35.38;26.12;99162.09;5110043;28;20398;-53
2021/07/06 09:53:25;;;;;;;;;;;;;;;35.48;25.86;99160.56;5109822;28;19957;-52
2021/07/06 09:55:51;;;;;;;;;;;;;;;35.47;26.59;99143.19;5110390;28;19976;-54
2021/07/06 09:58:16;;;;;;;;;;;;;;;35.76;27.18;99162.72;5110157;28;19916;-54
2021/07/06 10:00:41;;;;;;;;;;;;;;;36.12;25.98;99160.91;5110209;28;20425;-52
2021/07/06 10:03:07;;;;;;;;;;;;;;;36.35;24.90;99162.59;5110300;28;19918;-54
2021/07/06 10:05:32;;;;;;;;;;;;;;;36.18;24.43;99158.56;5112357;28;19916;-52
2021/07/06 10:07:57;;;;;;;;;;;;;;;36.27;25.09;99152.66;5095408;28;20371;-53
2021/07/06 10:10:23;;;;;;;;;;;;;;;36.15;24.51;99157.34;5095210;28;19923;-53
2021/07/06 10:12:48;;;;;;;;;;;;;;;36.12;25.15;99160.91;5113406;28;19912;-52
2021/07/06 10:15:15;;;;;;;;;;;;;;;35.93;25.68;99163.97;5113455;28;20348;-52
2021/07/06 10:17:40;;;;;;;;;;;;;;;35.78;25.50;99160.38;5113437;28;19920;-56
2021/07/06 10:20:10;;;;;;;;;;;;;;;36.90;24.24;99161.47;5112832;28;19927;-53
2021/07/06 10:22:35;;;;;;;;;;;;;;;36.81;23.96;99156.34;5113504;28;20348;-54
2021/07/06 10:25:03;;;;;;;;;;;;;;;36.70;23.85;99156.31;5113193;28;19919;-54
2021/07/06 10:27:29;;;;;;;;;;;;;;;36.86;23.33;99144.06;5113017;28;19911;-53
2021/07/06 10:30:07;;;;;;;;;;;;;;;36.87;23.57;99154.75;5113272;28;19912;-52
2021/07/06 10:32:35;;;;;;;;;;;;;;;37.24;24.34;99144.47;5112953;28;19926;-54
2021/07/06 10:35:01;;;;;;;;;;;;;;;37.70;22.67;99149.94;5113120;28;19919;-54
2021/07/06 10:37:29;;;;;;;;;;;;;;;37.62;23.34;99145.59;5113227;28;19916;-52
2021/07/06 10:39:54;;;;;;;;;;;;;;;37.49;22.61;99142.44;5095203;28;20271;-54
2021/07/06 10:42:20;;;;;;;;;;;;;;;37.36;23.20;99138.50;5113105;28;19912;-53
2021/07/06 10:44:45;;;;;;;;;;;;;;;37.09;23.39;99138.09;5095033;28;19912;-53
2021/07/06 10:47:33;;;;;;;;;;;;;;;37.59;23.19;99137.28;5113274;28;19969;-52
2021/07/06 10:49:59;;;;;;;;;;;;;;;37.09;24.52;99138.91;5102316;28;20268;-54
2021/07/06 10:52:33;;;;;;;;;;;;;;;37.26;24.28;99133.75;5112910;28;19961;-53
2021/07/06 10:54:58;;;;;;;;;;;;;;;37.62;23.67;99130.94;5113029;28;20349;-52
2021/07/06 10:57:23;;;;;;;;;;;;;;;37.81;23.88;99135.22;5094561;28;19920;-53
2021/07/06 10:59:53;;;;;;;;;;;;;;;37.33;22.92;99134.53;5112852;28;19911;-54
2021/07/06 11:02:22;;;;;;;;;;;;;;;36.84;23.36;99130.59;5112920;28;20427;-53
2021/07/06 11:04:50;;;;;;;;;;;;;;;37.27;24.53;99127.03;5112935;28;19919;-52
2021/07/06 11:07:34;;;;;;;;;;;;;;;37.25;23.05;99124.66;5111509;28;19916;-53
2021/07/06 11:09:59;;;;;;;;;;;;;;;37.34;23.05;99121.47;5112360;28;20382;-52
2021/07/06 11:12:24;;;;;;;;;;;;;;;37.73;23.51;99126.91;5113075;28;19969;-52
2021/07/06 11:15:16;;;;;;;;;;;;;;;37.96;22.95;99122.88;5113463;28;20373;-53
2021/07/06 11:17:42;;;;;;;;;;;;;;;37.26;22.72;99123.47;5108593;28;19924;-54
2021/07/06 11:20:26;;;;;;;;;;;;;;;36.51;23.87;99118.69;5111513;28;19919;-53
2021/07/06 11:22:55;;;;;;;;;;;;;;;36.48;23.95;99113.94;5111683;28;19912;-53
2021/07/06 11:25:20;;;;;;;;;;;;;;;37.08;24.44;99120.69;5111560;28;19960;-52
2021/07/06 11:27:58;;;;;;;;;;;;;;;36.85;24.47;99110.00;5123869;27;20301;-54
2021/07/06 11:30:27;;;;;;;;;;;;;;;37.33;23.77;99111.56;5132678;27;19911;-52
2021/07/06 11:33:03;;;;;;;;;;;;;;;37.24;23.85;99111.97;5114747;27;19916;-54
2021/07/06 11:35:29;;;;;;;;;;;;;;;36.69;24.20;99115.16;5133942;27;19950;-53
2021/07/06 11:37:55;;;;;;;;;;;;;;;36.56;24.45;99106.44;5133552;27;19982;-54
2021/07/06 11:40:20;;;;;;;;;;;;;;;36.44;25.33;99107.56;5115238;27;19991;-55
2021/07/06 11:42:45;;;;;;;;;;;;;;;36.19;25.76;99100.03;5111421;28;19931;-52
2021/07/06 11:45:10;;;;;;;;;;;;;;;36.33;25.87;99104.03;5112893;28;20006;-53
2021/07/06 11:47:36;;;;;;;;;;;;;;;36.89;25.09;99108.03;5112914;28;19912;-55
2021/07/06 11:50:01;;;;;;;;;;;;;;;36.48;24.88;99105.63;5112749;28;19941;-53
2021/07/06 11:52:26;;;;;;;;;;;;;;;36.68;24.68;99114.38;5112837;28;20265;-51
2021/07/06 11:54:52;;;;;;;;;;;;;;;36.84;24.98;99111.19;5112571;28;19965;-54
2021/07/06 11:57:17;;;;;;;;;;;;;;;36.79;24.39;99083.91;5112561;28;19938;-54
2021/07/06 11:59:43;;;;;;;;;;;;;;;36.99;24.66;99103.66;5111521;28;19923;-55
2021/07/06 12:02:09;;;;;;;;;;;;;;;37.32;24.54;99098.91;5112373;28;19951;-52
2021/07/06 12:04:35;;;;;;;;;;;;;;;37.85;23.86;99103.50;5112549;28;20020;-54
2021/07/06 12:07:03;;;;;;;;;;;;;;;37.09;25.35;99099.28;5112721;28;20391;-54
2021/07/06 12:09:28;;;;;;;;;;;;;;;37.04;24.31;99085.84;5112263;28;19912;-54
2021/07/06 12:11:57;;;;;;;;;;;;;;;37.30;25.11;99096.53;5112409;28;19918;-54
2021/07/06 12:14:22;;;;;;;;;;;;;;;37.69;23.93;99090.06;5111132;28;19950;-54
2021/07/06 12:16:48;;;;;;;;;;;;;;;37.91;23.96;99087.22;5112381;28;20058;-54
2021/07/06 12:19:13;;;;;;;;;;;;;;;38.12;23.61;99092.66;5112234;28;19924;-54
2021/07/06 12:21:39;;;;;;;;;;;;;;;38.19;23.05;99089.03;5112001;28;19930;-54
2021/07/06 12:24:08;;;;;;;;;;;;;;;37.67;23.55;99086.13;5111901;28;19918;-53
2021/07/06 12:26:40;;;;;;;;;;;;;;;37.60;23.22;99086.91;5111580;28;20431;-53
2021/07/06 12:29:05;;;;;;;;;;;;;;;37.50;24.08;99084.97;5111495;28;19912;-54
2021/07/06 12:31:34;;;;;;;;;;;;;;;37.42;23.58;99091.75;5112221;28;20455;-52
2021/07/06 12:34:02;;;;;;;;;;;;;;;37.26;23.56;99089.38;5112030;28;19912;-53
2021/07/06 12:36:28;;;;;;;;;;;;;;;38.12;21.80;99097.44;5112014;28;19918;-53
2021/07/06 12:39:06;;;;;;;;;;;;;;;37.44;23.01;99092.91;5111759;28;20464;-52
2021/07/06 12:41:32;;;;;;;;;;;;;;;37.62;22.79;99089.31;5093723;28;19912;-55
2021/07/06 12:43:58;;;;;;;;;;;;;;;37.91;21.89;99082.44;5093864;28;19922;-54